METAR Data
IDs: Format: Raw Decoded Include TAF

Data at: 2148 UTC 24 Mar 2019

KCXO 242053Z 16012KT 10SM FEW033 FEW046 BKN055 27/19 A3005 RMK AO2 SLP173 T02670189 56019
KCXO 241953Z 16008KT 10SM SCT028 BKN038 OVC060 26/18 A3006 RMK AO2 SLP177 T02560183
KCXO 241853Z 15011KT 10SM SCT028 BKN038 BKN060 25/19 A3009 RMK AO2 SLP187 T02500189
KCXO 241753Z 16008KT 10SM FEW025 SCT040 BKN048 24/19 A3011 RMK AO2 SLP193 T02440189 10244 20150 58010
KCXO 241731Z 19007KT 10SM SCT023 SCT033 OVC047 23/19 A3012 RMK AO2 T02330189
KCXO 241702Z 19008KT 10SM FEW021 BKN028 OVC045 23/19 A3013 RMK AO2 T02330189
KCXO 241653Z 19009KT 10SM SCT022 BKN030 OVC035 23/19 A3013 RMK AO2 SLP200 T02280189
KCXO 241635Z 16008KT 10SM SCT020 SCT026 OVC035 23/19 A3013 RMK AO2 T02280189
KCXO 241553Z 18010KT 10SM OVC016 22/19 A3014 RMK AO2 SLP205 T02220189
KCXO 241453Z 18010KT 10SM SCT010 BKN018 OVC028 20/18 A3014 RMK AO2 SLP203 T02000183 53009
KCXO 241434Z 18007KT 10SM SCT007 SCT021 OVC029 19/18 A3013 RMK AO2 T01940183
KCXO 241426Z 17007KT 9SM SCT005 SCT021 OVC030 19/18 A3013 RMK AO2 T01890183
KCXO 241416Z 16008KT 7SM BKN005 OVC030 18/18 A3013 RMK AO2 T01830183
KCXO 241353Z 15006KT 4SM BR OVC004 17/17 A3012 RMK AO2 SLP197 T01720172
KCXO 241338Z 15006KT 3SM BR OVC003 17/17 A3011 RMK AO2 T01670167
KCXO 241253Z 15005KT 1SM BR OVC002 16/16 A3011 RMK AO2 SLP194 T01560156
KCXO 241225Z 14005KT 1/2SM FG OVC002 16/16 A3011 RMK AO2 T01560156
KCXO 241213Z 14004KT 1SM BR OVC003 16/16 A3011 RMK AO2 T01560156
KCXO 241159Z 14004KT 2SM BR BKN003 OVC023 15/15 A3011 RMK AO2 T01500150
KCXO 241153Z 15005KT 3SM BR BKN003 OVC021 16/16 A3011 RMK AO2 SLP194 T01560156 10156 20133 51003
KCXO 241151Z 15004KT 3SM BR BKN003 OVC023 15/15 A3011 RMK AO2
KCXO 241131Z 13003KT 5SM BR FEW003 BKN026 OVC038 15/15 A3011 RMK AO2 T01500150
KCXO 241103Z 14004KT 5SM BR BKN026 OVC070 15/15 A3010 RMK AO2 T01500150
KCXO 241053Z 14003KT 7SM SCT028 OVC070 15/15 A3010 RMK AO2 SLP192 T01500150
KCXO 240953Z AUTO 15004KT 8SM BKN033 OVC065 15/15 A3010 RMK AO2 SLP190 T01500150
KCXO 240948Z AUTO 14003KT 9SM BKN030 BKN035 OVC065 14/14 A3010 RMK AO2
KCXO 240930Z AUTO 00000KT 5SM BR BKN029 13/13 A3010 RMK AO2 T01330133
KCXO 240853Z AUTO 00000KT 7SM FEW024 BKN065 14/14 A3010 RMK AO2 SLP191 T01390139 56008
KCXO 240753Z AUTO 00000KT 10SM BKN032 15/15 A3011 RMK AO2 SLP193 T01500150
KCXO 240653Z AUTO 00000KT 10SM BKN033 14/14 A3011 RMK AO2 SLP195 T01440144
KCXO 240553Z AUTO 00000KT 10SM FEW033 13/13 A3012 RMK AO2 SLP199 T01330133 10206 20133 402330089 51001
KCXO 240453Z AUTO 11004KT 10SM CLR 15/15 A3012 RMK AO2 SLP198 T01500150
KCXO 240353Z AUTO 00000KT 10SM CLR 16/15 A3014 RMK AO2 SLP204 T01610150
KCXO 240253Z AUTO 14007KT 10SM CLR 17/16 A3012 RMK AO2 SLP198 T01720156 53005
KCXO 240153Z AUTO 14009KT 10SM CLR 18/15 A3011 RMK AO2 SLP193 T01780150
KCXO 240053Z 14013KT 10SM CLR 19/15 A3009 RMK AO2 SLP188 T01890150
KCXO 232353Z 15012G18KT 10SM OVC080 21/15 A3010 RMK AO2 SLP192 T02060150 10228 20206 55000
KCXO 232253Z 14013KT 10SM FEW085 22/15 A3010 RMK AO2 SLP190 T02220150
KCXO 232153Z 16016KT 10SM FEW044 BKN080 22/15 A3010 RMK AO2 SLP191 T02220150
KCXO 232053Z 15014G22KT 10SM BKN080 BKN110 22/15 A3011 RMK AO2 SLP192 T02220150 58014
KCXO 231953Z 16014KT 10SM OVC070 22/15 A3012 RMK AO2 SLP198 T02170150
KCXO 231853Z 16010KT 10SM OVC070 22/14 A3013 RMK AO2 SLP201 T02220144
KCXO 231753Z 15012KT 10SM SCT036 OVC100 22/15 A3015 RMK AO2 SLP206 T02220150 10233 20117 58009
KCXO 231653Z 19010KT 10SM FEW028 22/15 A3017 RMK AO2 SLP214 T02220150
KCXO 231553Z 14010KT 10SM CLR 22/15 A3018 RMK AO2 SLP216 T02170150
KCXO 231453Z 14005KT 10SM SCT075 BKN090 18/15 A3017 RMK AO2 SLP215 T01830150 51021
KCXO 231353Z 00000KT 10SM OVC085 16/14 A3016 RMK AO2 SLP210 T01560144
KCXO 231253Z 00000KT 6SM BR OVC070 14/14 A3013 RMK AO2 SLP201 T01390139
KCXO 231153Z 00000KT 10SM OVC070 12/12 A3011 RMK AO2 SLP193 T01170117 10122 20089 53009
KCXO 231053Z 00000KT 10SM OVC070 12/11 A3009 RMK AO2 SLP186 T01170111
KCXO 230953Z AUTO 00000KT 10SM FEW070 09/09 A3008 RMK AO2 SLP183 T00890089